Time;durP1;ratioP1;P1;durP2;ratioP2;P2;SDS_P1;SDS_P2;PMS_P1;PMS_P2;Temp;Humidity;BMP_temperature;BMP_pressure;BME280_temperature;BME280_humidity;BME280_pressure;Samples;Min_cycle;Max_cycle;Signal;HPM_P1;HPM_P2
2023/04/15 00:01:12;;;;;;;7.60;4.27;;;;;;;8.80;100.00;98186.69;5092639;28;20195;-78
2023/04/15 00:03:40;;;;;;;7.43;4.47;;;;;;;8.75;100.00;98186.16;5088607;28;20211;-77
2023/04/15 00:06:11;;;;;;;8.70;4.23;;;;;;;8.76;100.00;98185.19;5092593;28;20226;-78
2023/04/15 00:08:39;;;;;;;7.47;4.20;;;;;;;8.69;100.00;98178.69;5091000;28;20218;-78
2023/04/15 00:11:07;;;;;;;6.50;4.10;;;;;;;8.64;100.00;98179.00;5095190;28;20196;-78
2023/04/15 00:13:35;;;;;;;6.40;4.30;;;;;;;8.49;100.00;98172.16;5085940;28;20200;-77
2023/04/15 00:16:04;;;;;;;7.07;3.73;;;;;;;8.45;100.00;98173.34;5094523;28;20667;-78
2023/04/15 00:18:32;;;;;;;5.97;3.77;;;;;;;8.56;100.00;98165.50;5094951;28;20211;-78
2023/04/15 00:21:01;;;;;;;7.13;4.07;;;;;;;8.37;100.00;98176.53;5094704;28;20654;-78
2023/04/15 00:23:31;;;;;;;6.70;3.93;;;;;;;8.39;100.00;98171.97;5089384;28;20202;-78
2023/04/15 00:26:00;;;;;;;5.77;3.83;;;;;;;8.28;100.00;98169.22;5091685;28;20188;-78
2023/04/15 00:28:29;;;;;;;5.37;4.13;;;;;;;8.07;100.00;98168.09;5092237;28;20192;-78
2023/04/15 00:30:58;;;;;;;5.33;3.73;;;;;;;7.96;100.00;98169.69;5085034;28;20204;-77
2023/04/15 00:33:26;;;;;;;6.87;3.73;;;;;;;7.88;100.00;98164.09;5089910;28;20204;-77
2023/04/15 00:35:54;;;;;;;4.60;3.67;;;;;;;7.83;100.00;98168.03;5088248;28;20192;-78
2023/04/15 00:38:22;;;;;;;5.10;3.50;;;;;;;7.85;100.00;98161.69;5088889;28;20219;-78
2023/04/15 00:40:52;;;;;;;5.40;3.50;;;;;;;7.65;100.00;98163.06;5091543;28;20203;-78
2023/04/15 00:43:20;;;;;;;5.13;4.10;;;;;;;7.89;100.00;98164.94;5088666;28;20356;-78
2023/04/15 00:45:50;;;;;;;6.10;4.00;;;;;;;7.81;100.00;98159.34;5089406;28;20196;-77
2023/04/15 00:48:18;;;;;;;4.80;3.63;;;;;;;7.83;100.00;98160.13;5090078;28;20191;-78
2023/04/15 00:50:47;;;;;;;5.13;3.93;;;;;;;7.93;100.00;98158.53;5094301;28;20249;-78
2023/04/15 00:53:15;;;;;;;8.27;4.20;;;;;;;7.80;100.00;98149.75;5088812;28;20211;-78
2023/04/15 00:55:43;;;;;;;8.60;4.17;;;;;;;7.86;100.00;98158.09;5086173;28;20195;-78
2023/04/15 00:58:14;;;;;;;4.50;3.83;;;;;;;7.86;100.00;98162.53;5091136;28;20219;-78
2023/04/15 01:00:44;;;;;;;4.50;4.10;;;;;;;7.83;100.00;98162.75;5088190;28;20217;-78
2023/04/15 01:03:12;;;;;;;6.77;4.53;;;;;;;7.83;100.00;98165.41;5084189;28;20223;-78
2023/04/15 01:05:41;;;;;;;5.33;3.70;;;;;;;7.88;100.00;98168.53;5090987;28;20198;-78
2023/04/15 01:08:09;;;;;;;5.87;3.70;;;;;;;7.80;100.00;98162.94;5088086;28;20704;-77
2023/04/15 01:10:38;;;;;;;5.90;4.00;;;;;;;7.86;100.00;98165.16;5086463;28;20196;-78
2023/04/15 01:13:06;;;;;;;5.63;3.97;;;;;;;7.85;100.00;98145.88;5090913;28;20204;-78
2023/04/15 01:15:39;;;;;;;8.33;4.27;;;;;;;7.79;100.00;98154.19;5088941;28;20200;-78
2023/04/15 01:18:08;;;;;;;7.97;3.90;;;;;;;7.69;100.00;98153.97;5088421;28;20199;-78
2023/04/15 01:20:36;;;;;;;5.20;3.70;;;;;;;7.58;100.00;98160.94;5087579;28;20199;-78
2023/04/15 01:23:05;;;;;;;7.27;3.50;;;;;;;7.50;100.00;98156.19;5090692;28;20257;-78
2023/04/15 01:25:34;;;;;;;5.80;3.60;;;;;;;7.31;100.00;98159.22;5093793;28;20237;-78
2023/04/15 01:28:03;;;;;;;5.60;3.40;;;;;;;7.32;100.00;98160.91;5083974;28;20199;-78
2023/04/15 01:30:34;;;;;;;6.17;3.73;;;;;;;7.32;100.00;98155.63;5085643;28;20187;-78
2023/04/15 01:33:02;;;;;;;5.23;3.50;;;;;;;7.33;100.00;98159.09;5089421;28;20252;-78
2023/04/15 01:35:31;;;;;;;4.03;3.60;;;;;;;7.16;100.00;98154.97;5090613;28;20226;-78
2023/04/15 01:38:06;;;;;;;6.03;4.10;;;;;;;7.15;100.00;98164.66;5093594;28;20204;-78
2023/04/15 01:40:36;;;;;;;5.37;3.80;;;;;;;7.21;100.00;98158.13;5088933;28;20195;-78
2023/04/15 01:43:04;;;;;;;5.23;3.90;;;;;;;7.23;100.00;98158.03;5092567;28;20650;-78
2023/04/15 01:45:32;;;;;;;6.73;3.80;;;;;;;7.31;100.00;98150.47;5091901;28;20195;-78
2023/04/15 01:48:01;;;;;;;7.33;3.60;;;;;;;7.03;100.00;98154.09;5090228;28;20195;-78
2023/04/15 01:50:29;;;;;;;5.23;3.87;;;;;;;7.25;100.00;98149.09;5083138;28;20199;-78
2023/04/15 01:52:57;;;;;;;5.57;3.97;;;;;;;7.29;100.00;98149.72;5085557;28;20195;-78
2023/04/15 01:55:25;;;;;;;6.80;4.07;;;;;;;7.36;100.00;98145.75;5086210;28;20330;-78
2023/04/15 01:57:55;;;;;;;4.67;3.83;;;;;;;7.39;100.00;98145.53;5085632;28;20207;-78
2023/04/15 02:00:23;;;;;;;6.47;3.73;;;;;;;7.48;100.00;98147.53;5084841;28;20219;-78
2023/04/15 02:02:52;;;;;;;5.70;3.83;;;;;;;7.21;100.00;98149.38;5087382;28;21729;-78
2023/04/15 02:05:20;;;;;;;5.07;3.60;;;;;;;7.24;100.00;98152.69;5090125;28;20199;-78
2023/04/15 02:07:48;;;;;;;6.30;3.53;;;;;;;7.06;100.00;98153.91;5086611;28;20282;-78
2023/04/15 02:10:16;;;;;;;5.63;3.80;;;;;;;6.87;100.00;98167.41;5089775;28;20245;-78
2023/04/15 02:12:44;;;;;;;5.80;3.80;;;;;;;6.77;100.00;98161.91;5088109;28;20218;-78
2023/04/15 02:15:14;;;;;;;5.17;3.63;;;;;;;6.65;100.00;98161.81;5092140;28;20287;-78
2023/04/15 02:17:44;;;;;;;7.87;3.83;;;;;;;6.54;100.00;98163.38;5090352;28;20300;-78
2023/04/15 02:20:13;;;;;;;5.70;3.73;;;;;;;6.55;100.00;98162.41;5092727;28;20303;-78
2023/04/15 02:22:41;;;;;;;7.87;4.20;;;;;;;6.51;100.00;98160.94;5092682;28;20237;-78
2023/04/15 02:25:10;;;;;;;5.87;4.40;;;;;;;6.62;100.00;98162.88;5092730;28;20244;-78
2023/04/15 02:27:38;;;;;;;7.67;4.40;;;;;;;6.66;100.00;98161.75;5087432;28;20195;-78
2023/04/15 02:30:08;;;;;;;7.37;4.00;;;;;;;6.72;100.00;98169.25;5091688;28;20595;-78
2023/04/15 02:32:38;;;;;;;4.87;3.63;;;;;;;6.87;100.00;98170.06;5090039;28;20188;-78
2023/04/15 02:35:08;;;;;;;7.53;4.30;;;;;;;6.93;100.00;98168.78;5089836;28;20711;-78
2023/04/15 02:37:42;;;;;;;4.23;3.83;;;;;;;6.91;100.00;98174.16;5083901;28;20192;-78
2023/04/15 02:40:12;;;;;;;5.70;4.10;;;;;;;6.87;100.00;98178.78;5073822;28;20246;-78
2023/04/15 02:42:40;;;;;;;7.40;3.97;;;;;;;6.67;100.00;98181.88;5072361;28;20207;-77
2023/04/15 02:45:09;;;;;;;6.17;4.07;;;;;;;6.74;100.00;98177.03;5066232;28;20196;-77
2023/04/15 02:47:40;;;;;;;4.80;3.97;;;;;;;6.46;100.00;98170.88;5064760;28;20200;-77
2023/04/15 02:50:12;;;;;;;8.93;4.60;;;;;;;6.33;100.00;98164.72;5072377;28;20220;-77
2023/04/15 02:52:41;;;;;;;11.00;5.10;;;;;;;6.44;100.00;98179.81;5061479;28;20192;-77
2023/04/15 02:55:10;;;;;;;7.27;4.97;;;;;;;6.27;100.00;98172.97;5071823;28;20189;-77
2023/04/15 02:57:39;;;;;;;7.43;4.80;;;;;;;6.22;100.00;98165.41;5073518;28;20200;-77
2023/04/15 03:00:10;;;;;;;7.80;4.60;;;;;;;5.99;100.00;98177.34;5069713;28;20293;-77
2023/04/15 03:02:41;;;;;;;7.07;4.60;;;;;;;6.27;100.00;98171.22;5070325;28;20220;-78
2023/04/15 03:05:12;;;;;;;6.47;4.23;;;;;;;6.17;100.00;98172.72;5072826;28;20207;-78
2023/04/15 03:07:40;;;;;;;9.83;4.87;;;;;;;6.08;100.00;98175.06;5073670;28;20204;-78
2023/04/15 03:10:10;;;;;;;6.17;4.70;;;;;;;6.21;100.00;98168.97;5072570;28;20777;-77
2023/04/15 03:12:40;;;;;;;8.43;4.63;;;;;;;6.29;100.00;98171.13;5071998;28;20257;-77
2023/04/15 03:15:10;;;;;;;5.97;4.10;;;;;;;6.27;100.00;98171.22;5071873;28;20196;-77
2023/04/15 03:17:40;;;;;;;5.93;3.93;;;;;;;6.32;100.00;98168.31;5075711;28;20716;-77
2023/04/15 03:20:09;;;;;;;6.70;4.73;;;;;;;6.17;100.00;98161.34;5075785;28;20216;-77
2023/04/15 03:22:37;;;;;;;6.30;4.50;;;;;;;6.14;100.00;98167.66;5068936;28;20200;-77
2023/04/15 03:25:06;;;;;;;6.77;4.40;;;;;;;6.14;100.00;98169.44;5075963;28;20242;-77
2023/04/15 03:27:34;;;;;;;7.47;4.57;;;;;;;6.18;100.00;98160.44;5075743;28;20262;-77
2023/04/15 03:30:02;;;;;;;6.30;4.33;;;;;;;5.96;100.00;98159.13;5068548;28;20197;-77
2023/04/15 03:32:31;;;;;;;5.40;4.63;;;;;;;5.92;100.00;98156.78;5071052;28;20247;-77
2023/04/15 03:35:02;;;;;;;8.90;4.77;;;;;;;5.80;100.00;98160.13;5024614;28;20197;-77
2023/04/15 03:37:30;;;;;;;5.37;4.50;;;;;;;5.83;100.00;98160.78;5075704;28;20196;-77
2023/04/15 03:39:58;;;;;;;8.20;5.30;;;;;;;5.81;100.00;98157.41;5068695;28;20270;-78
2023/04/15 03:42:26;;;;;;;6.70;5.00;;;;;;;5.88;100.00;98152.59;5072502;28;20196;-77
2023/04/15 03:44:54;;;;;;;9.63;4.93;;;;;;;5.85;100.00;98155.44;5067484;28;20204;-77
2023/04/15 03:47:23;;;;;;;7.70;4.93;;;;;;;5.91;100.00;98148.06;5071919;28;20192;-77
2023/04/15 03:49:51;;;;;;;5.97;4.93;;;;;;;5.90;100.00;98161.25;5013516;28;20198;-78
2023/04/15 03:52:21;;;;;;;6.67;4.87;;;;;;;5.84;100.00;98164.25;5010724;28;20190;-78
2023/04/15 03:54:49;;;;;;;11.27;4.90;;;;;;;5.90;100.00;98151.63;5007478;28;20261;-77
2023/04/15 03:57:17;;;;;;;8.37;5.47;;;;;;;5.68;100.00;98154.66;5013219;28;20237;-78
2023/04/15 03:59:45;;;;;;;6.97;4.93;;;;;;;5.80;100.00;98154.88;5012001;28;20218;-77
2023/04/15 04:02:14;;;;;;;5.27;4.57;;;;;;;5.79;100.00;98153.16;5010923;28;20214;-77
2023/04/15 04:04:43;;;;;;;9.03;5.37;;;;;;;5.63;100.00;98151.47;5010099;28;20296;-77
2023/04/15 04:07:15;;;;;;;7.23;5.00;;;;;;;5.77;100.00;98162.94;5010767;28;20229;-78
2023/04/15 04:09:45;;;;;;;11.70;5.03;;;;;;;5.93;100.00;98163.72;5007683;28;20206;-77
2023/04/15 04:12:14;;;;;;;10.07;5.50;;;;;;;5.94;100.00;98161.00;5013154;28;20194;-78
2023/04/15 04:14:42;;;;;;;7.57;5.27;;;;;;;5.91;100.00;98163.81;5033175;28;20201;-78
2023/04/15 04:17:12;;;;;;;9.00;5.33;;;;;;;6.00;100.00;98162.41;5055941;28;20255;-78
2023/04/15 04:19:40;;;;;;;7.17;5.30;;;;;;;6.10;100.00;98160.91;5054863;28;20193;-77
2023/04/15 04:22:08;;;;;;;6.37;4.80;;;;;;;6.09;100.00;98156.59;5051641;28;20197;-78
2023/04/15 04:24:36;;;;;;;10.50;5.17;;;;;;;5.89;100.00;98162.22;5052687;28;20220;-78
2023/04/15 04:27:06;;;;;;;7.77;5.17;;;;;;;5.92;100.00;98168.13;5054736;28;20251;-78
2023/04/15 04:29:34;;;;;;;7.80;4.83;;;;;;;6.00;100.00;98162.41;5053582;28;20190;-78
2023/04/15 04:32:03;;;;;;;8.50;5.73;;;;;;;6.06;100.00;98169.06;5052445;28;20193;-78
2023/04/15 04:34:31;;;;;;;8.27;5.87;;;;;;;6.20;100.00;98163.81;5052195;28;20200;-78
2023/04/15 04:36:59;;;;;;;7.43;5.07;;;;;;;6.24;100.00;98171.41;5052312;28;20247;-78
2023/04/15 04:39:27;;;;;;;5.70;5.10;;;;;;;6.25;100.00;98177.50;5048674;28;20235;-78
2023/04/15 04:41:56;;;;;;;9.00;5.63;;;;;;;6.21;100.00;98178.66;5052309;28;20270;-78
2023/04/15 04:44:26;;;;;;;10.03;5.27;;;;;;;6.22;100.00;98167.19;5047996;28;20678;-78
2023/04/15 04:46:54;;;;;;;7.57;5.20;;;;;;;6.10;100.00;98167.97;5053202;28;20250;-78
2023/04/15 04:49:22;;;;;;;6.57;4.90;;;;;;;6.00;100.00;98178.19;5054301;28;20201;-78
2023/04/15 04:51:50;;;;;;;9.47;4.93;;;;;;;5.97;100.00;98170.47;5054539;28;20242;-78
2023/04/15 04:54:20;;;;;;;9.50;5.17;;;;;;;6.00;100.00;98175.56;5049710;28;20201;-79
2023/04/15 04:56:48;;;;;;;12.47;5.60;;;;;;;5.96;100.00;98176.66;5053268;28;20201;-78
2023/04/15 04:59:16;;;;;;;9.40;5.43;;;;;;;6.00;100.00;98175.56;5053083;28;20197;-78
2023/04/15 05:01:48;;;;;;;11.17;6.00;;;;;;;6.20;100.00;98172.53;5052397;28;20216;-79
2023/04/15 05:04:16;;;;;;;8.90;5.80;;;;;;;6.13;100.00;98183.53;5068067;28;20235;-78
2023/04/15 05:06:44;;;;;;;7.33;5.53;;;;;;;6.04;100.00;98182.31;5074004;28;20204;-78
2023/04/15 05:09:12;;;;;;;6.53;5.47;;;;;;;6.06;100.00;98180.41;5064133;28;20211;-78
2023/04/15 05:11:40;;;;;;;7.87;5.53;;;;;;;6.07;100.00;98183.91;5067997;28;20204;-78
2023/04/15 05:14:08;;;;;;;8.20;5.20;;;;;;;6.11;100.00;98188.03;5068786;28;20204;-79
2023/04/15 05:16:37;;;;;;;9.10;5.80;;;;;;;6.12;100.00;98192.34;5070477;28;20198;-79
2023/04/15 05:19:06;;;;;;;8.37;5.17;;;;;;;6.13;100.00;98188.78;5069952;28;20241;-79
2023/04/15 05:21:34;;;;;;;9.47;5.80;;;;;;;6.21;100.00;98190.00;5070627;28;20218;-78
2023/04/15 05:24:06;;;;;;;8.20;5.53;;;;;;;6.20;100.00;98188.31;5070574;28;20193;-79
2023/04/15 05:26:34;;;;;;;8.17;5.63;;;;;;;6.21;100.00;98190.00;5073408;28;20200;-78
2023/04/15 05:29:02;;;;;;;6.87;5.60;;;;;;;6.25;100.00;98188.84;5068309;28;20250;-78
2023/04/15 05:31:31;;;;;;;8.83;5.73;;;;;;;6.38;100.00;98191.59;5062434;28;20713;-78
2023/04/15 05:33:59;;;;;;;9.50;6.07;;;;;;;6.17;100.00;98193.75;5069892;28;20279;-78
2023/04/15 05:36:30;;;;;;;7.67;5.20;;;;;;;6.30;100.00;98201.75;5073674;28;20196;-78
2023/04/15 05:38:58;;;;;;;9.57;6.03;;;;;;;6.27;100.00;98205.41;5070421;28;20250;-79
2023/04/15 05:41:27;;;;;;;6.33;5.50;;;;;;;6.53;100.00;98202.91;5067025;28;20248;-79
2023/04/15 05:43:55;;;;;;;8.17;5.47;;;;;;;6.44;100.00;98203.50;5066744;28;20238;-79
2023/04/15 05:46:23;;;;;;;7.50;4.87;;;;;;;6.39;100.00;98198.53;5073200;28;20196;-78
2023/04/15 05:48:51;;;;;;;8.60;4.93;;;;;;;6.32;100.00;98205.94;5073118;28;20196;-79
2023/04/15 05:51:21;;;;;;;6.93;5.47;;;;;;;6.43;100.00;98200.03;5070542;28;20207;-78
2023/04/15 05:53:51;;;;;;;8.40;5.40;;;;;;;6.48;100.00;98205.00;5073129;28;20188;-79
2023/04/15 05:56:20;;;;;;;10.00;5.70;;;;;;;6.43;100.00;98210.53;5065176;28;20204;-78
2023/04/15 05:58:48;;;;;;;6.77;5.07;;;;;;;6.48;100.00;98205.00;5068906;28;20205;-79
2023/04/15 06:01:18;;;;;;;7.20;5.77;;;;;;;6.47;100.00;98212.06;5066863;28;20659;-79
2023/04/15 06:03:46;;;;;;;6.97;5.33;;;;;;;6.62;100.00;98218.13;5072987;28;20224;-79
2023/04/15 06:06:15;;;;;;;8.77;5.60;;;;;;;6.55;100.00;98219.44;5070145;28;20256;-78
2023/04/15 06:08:43;;;;;;;8.03;6.17;;;;;;;6.59;100.00;98215.69;5072724;28;20257;-79
2023/04/15 06:11:13;;;;;;;7.97;5.63;;;;;;;6.74;100.00;98221.75;5072987;28;20249;-79
2023/04/15 06:13:42;;;;;;;8.70;6.67;;;;;;;6.87;100.00;98218.28;5071413;28;20196;-79
2023/04/15 06:16:10;;;;;;;8.37;6.47;;;;;;;6.86;100.00;98219.22;5064554;28;20204;-78
2023/04/15 06:18:39;;;;;;;6.87;6.17;;;;;;;6.92;100.00;98219.75;5072618;28;20231;-79
2023/04/15 06:21:07;;;;;;;9.73;6.37;;;;;;;6.99;100.00;98232.44;5066845;28;20216;-79
2023/04/15 06:23:36;;;;;;;8.23;6.50;;;;;;;7.00;100.00;98226.22;5064608;28;20204;-79
2023/04/15 06:26:04;;;;;;;10.17;6.63;;;;;;;7.08;100.00;98223.94;5072632;28;20206;-79
2023/04/15 06:28:34;;;;;;;7.03;6.20;;;;;;;7.10;100.00;98227.31;5066998;28;20366;-79
2023/04/15 06:31:02;;;;;;;11.07;6.80;;;;;;;7.26;100.00;98224.53;5072921;28;20197;-79
2023/04/15 06:33:32;;;;;;;8.70;6.93;;;;;;;7.38;100.00;98234.25;5069585;28;20700;-79
2023/04/15 06:36:00;;;;;;;10.53;7.20;;;;;;;7.53;100.00;98227.13;5068226;28;20250;-79
2023/04/15 06:38:28;;;;;;;9.47;7.50;;;;;;;7.52;100.00;98224.56;5069597;28;20200;-79
2023/04/15 06:40:57;;;;;;;12.77;7.37;;;;;;;7.63;100.00;98222.94;5067238;28;20200;-79
2023/04/15 06:43:25;;;;;;;8.27;6.80;;;;;;;7.80;100.00;98224.41;5072330;28;20319;-79
2023/04/15 06:45:55;;;;;;;9.53;7.23;;;;;;;7.93;100.00;98227.09;5069558;28;20229;-79
2023/04/15 06:48:25;;;;;;;8.97;6.90;;;;;;;7.85;100.00;98229.38;5072643;28;20317;-79
2023/04/15 06:50:53;;;;;;;10.03;7.40;;;;;;;7.84;100.00;98235.63;5072486;28;20211;-79
2023/04/15 06:53:22;;;;;;;9.73;6.80;;;;;;;8.09;100.00;98232.13;5069483;28;20201;-79
2023/04/15 06:55:50;;;;;;;9.03;7.20;;;;;;;8.29;100.00;98237.72;5069617;28;20230;-79
2023/04/15 06:58:18;;;;;;;10.93;7.67;;;;;;;8.17;100.00;98240.38;5066509;28;20262;-78
2023/04/15 07:00:47;;;;;;;10.60;7.60;;;;;;;8.20;100.00;98238.38;5070908;28;20262;-79
2023/04/15 07:03:17;;;;;;;7.93;7.10;;;;;;;8.36;100.00;98242.59;5062412;28;20239;-79
2023/04/15 07:05:46;;;;;;;11.37;7.67;;;;;;;8.21;100.00;98247.97;5072138;28;20197;-79
2023/04/15 07:08:14;;;;;;;12.13;7.03;;;;;;;8.13;100.00;98247.66;5072469;28;20234;-79
2023/04/15 07:10:42;;;;;;;9.40;7.43;;;;;;;8.19;100.00;98256.91;5068337;28;20242;-79
2023/04/15 07:13:11;;;;;;;13.60;7.83;;;;;;;7.89;100.00;98255.44;5072108;28;20192;-79
2023/04/15 07:15:39;;;;;;;9.70;7.30;;;;;;;7.92;100.00;98249.97;5062785;28;20228;-79
2023/04/15 07:18:08;;;;;;;9.77;7.47;;;;;;;7.94;100.00;98255.13;5065154;28;20192;-79
2023/04/15 07:20:38;;;;;;;8.20;7.30;;;;;;;8.12;100.00;98245.97;5069217;28;20203;-79
2023/04/15 07:23:06;;;;;;;10.70;7.13;;;;;;;8.10;100.00;98253.13;5069408;28;20221;-79
2023/04/15 07:25:35;;;;;;;9.87;7.33;;;;;;;8.07;100.00;98244.59;5068371;28;20722;-79
2023/04/15 07:28:03;;;;;;;9.63;7.20;;;;;;;8.36;100.00;98240.81;5066498;28;20242;-79
2023/04/15 07:30:32;;;;;;;9.00;6.30;;;;;;;8.40;100.00;98237.03;5061445;28;20199;-79
2023/04/15 07:33:00;;;;;;;8.50;6.70;;;;;;;8.45;100.00;98240.16;5065085;28;20216;-79
2023/04/15 07:35:29;;;;;;;10.17;7.57;;;;;;;8.57;100.00;98233.16;5071962;28;20729;-79
2023/04/15 07:37:58;;;;;;;8.83;7.10;;;;;;;8.79;100.00;98238.63;5068451;28;20200;-78
2023/04/15 07:40:27;;;;;;;7.80;6.83;;;;;;;8.85;100.00;98240.81;5072287;28;20245;-79
2023/04/15 07:42:57;;;;;;;8.63;6.20;;;;;;;8.86;100.00;98245.13;5075379;28;20220;-79
2023/04/15 07:45:26;;;;;;;7.63;6.57;;;;;;;9.14;100.00;98235.22;5068990;28;20279;-79
2023/04/15 07:47:56;;;;;;;8.47;6.00;;;;;;;9.15;100.00;98244.84;5075319;28;20337;-79
2023/04/15 07:50:25;;;;;;;5.60;4.93;;;;;;;9.11;100.00;98238.09;5068553;28;20193;-79
2023/04/15 07:52:53;;;;;;;5.90;5.00;;;;;;;9.15;100.00;98243.03;5071312;28;20234;-79
2023/04/15 07:55:23;;;;;;;6.87;5.80;;;;;;;9.39;100.00;98247.50;5075451;28;20230;-79
2023/04/15 07:57:53;;;;;;;7.00;5.17;;;;;;;9.28;100.00;98245.66;5064639;28;20208;-79
2023/04/15 08:00:21;;;;;;;6.50;5.10;;;;;;;9.32;100.00;98244.44;5065961;28;20269;-78
2023/04/15 08:02:51;;;;;;;6.97;5.27;;;;;;;9.43;100.00;98239.22;5065531;28;20220;-79
2023/04/15 08:05:20;;;;;;;6.07;5.33;;;;;;;9.41;100.00;98235.00;5072591;28;20219;-79
2023/04/15 08:07:48;;;;;;;5.80;4.73;;;;;;;9.47;100.00;98239.84;5070044;28;20250;-79
2023/04/15 08:10:17;;;;;;;5.93;4.57;;;;;;;9.57;100.00;98240.84;5071283;28;20197;-79
2023/04/15 08:12:48;;;;;;;5.77;4.50;;;;;;;9.40;100.00;98249.19;5069634;28;20204;-78
2023/04/15 08:15:17;;;;;;;5.80;4.77;;;;;;;9.59;100.00;98251.31;5069821;28;20188;-79
2023/04/15 08:17:47;;;;;;;4.57;3.93;;;;;;;9.67;100.00;98248.94;5074893;28;20250;-79
2023/04/15 08:20:15;;;;;;;5.07;4.50;;;;;;;9.61;100.00;98247.56;5074687;28;20643;-79
2023/04/15 08:22:43;;;;;;;4.37;3.93;;;;;;;9.87;100.00;98255.38;5070013;28;20216;-79
2023/04/15 08:25:12;;;;;;;5.27;4.43;;;;;;;9.97;100.00;98243.97;5067946;28;20205;-79
2023/04/15 08:27:40;;;;;;;4.77;4.20;;;;;;;9.84;100.00;98245.84;5071759;28;20269;-79
2023/04/15 08:30:11;;;;;;;5.37;4.23;;;;;;;10.09;100.00;98238.69;5067674;28;20200;-79
2023/04/15 08:32:40;;;;;;;5.63;4.30;;;;;;;10.36;100.00;98236.59;5070641;28;20204;-79
2023/04/15 08:35:09;;;;;;;5.40;4.40;;;;;;;10.45;100.00;98237.69;5071400;28;20279;-79
2023/04/15 08:37:37;;;;;;;4.10;3.60;;;;;;;10.59;100.00;98232.13;5071640;28;20325;-79
2023/04/15 08:40:07;;;;;;;5.20;4.47;;;;;;;10.42;100.00;98238.78;5063353;28;20246;-79
2023/04/15 08:42:41;;;;;;;5.67;4.20;;;;;;;10.49;100.00;98237.31;5074463;28;20216;-79
2023/04/15 08:45:13;;;;;;;4.40;4.00;;;;;;;10.33;100.00;98236.84;5072886;28;20655;-79
2023/04/15 08:47:44;;;;;;;4.97;4.17;;;;;;;10.48;100.00;98235.63;5071198;28;20192;-79
2023/04/15 08:50:13;;;;;;;6.93;3.80;;;;;;;10.47;100.00;98235.75;5074410;28;20200;-79
2023/04/15 08:52:41;;;;;;;5.53;4.33;;;;;;;10.76;100.00;98231.66;5073743;28;20196;-79
2023/04/15 08:55:10;;;;;;;5.13;4.03;;;;;;;10.60;100.00;98231.16;5071259;28;20361;-79
2023/04/15 08:57:39;;;;;;;4.37;3.93;;;;;;;10.60;100.00;98228.50;5070933;28;20185;-79
2023/04/15 09:00:09;;;;;;;4.57;3.63;;;;;;;10.47;100.00;98233.09;5064697;28;20246;-79
2023/04/15 09:02:39;;;;;;;6.23;4.30;;;;;;;10.71;100.00;98233.84;5067001;28;20224;-79
2023/04/15 09:05:08;;;;;;;5.47;3.97;;;;;;;10.60;100.00;98237.31;5070988;28;20203;-79
2023/04/15 09:07:37;;;;;;;4.77;3.83;;;;;;;10.49;100.00;98233.81;5070150;28;20192;-79
2023/04/15 09:10:06;;;;;;;4.50;4.10;;;;;;;10.46;100.00;98229.63;5019537;28;20242;-79
2023/04/15 09:12:35;;;;;;;5.03;4.07;;;;;;;10.45;100.00;98238.53;5067210;28;20196;-79
2023/04/15 09:15:03;;;;;;;6.90;4.03;;;;;;;10.29;100.00;98244.16;5072664;28;20200;-79
2023/04/15 09:17:33;;;;;;;4.40;4.00;;;;;;;10.31;100.00;98246.69;5069191;28;20563;-79
2023/04/15 09:20:15;;;;;;;5.70;3.63;;;;;;;10.37;100.00;98248.88;5073652;28;20215;-79
2023/04/15 09:22:46;;;;;;;3.83;3.43;;;;;;;10.08;100.00;98245.78;5073511;28;20311;-78
2023/04/15 09:25:26;;;;;;;3.87;3.47;;;;;;;10.04;100.00;98255.78;5073571;28;20192;-79
2023/04/15 09:27:56;;;;;;;4.03;3.30;;;;;;;10.14;100.00;98255.91;5073623;28;20263;-78
2023/04/15 09:30:25;;;;;;;5.33;3.40;;;;;;;10.13;100.00;98258.66;5064751;28;20201;-78
2023/04/15 09:32:55;;;;;;;3.47;3.13;;;;;;;10.01;100.00;98263.91;5073334;28;20204;-79
2023/04/15 09:35:27;;;;;;;4.50;3.40;;;;;;;9.96;100.00;98267.91;5070272;28;20193;-78
2023/04/15 09:38:04;;;;;;;4.57;3.20;;;;;;;10.14;100.00;98274.44;5071406;28;20192;-79
2023/04/15 09:40:34;;;;;;;4.07;3.10;;;;;;;10.31;100.00;98275.78;5067200;28;20195;-79
2023/04/15 09:43:02;;;;;;;2.40;2.20;;;;;;;9.86;100.00;98272.19;5070271;28;20220;-79
2023/04/15 09:45:31;;;;;;;3.43;2.40;;;;;;;9.77;100.00;98279.00;5066443;28;20196;-78
2023/04/15 09:48:14;;;;;;;3.43;3.00;;;;;;;9.83;100.00;98290.91;5066537;28;20222;-79
2023/04/15 09:50:45;;;;;;;5.20;2.80;;;;;;;9.83;100.00;98290.91;5073192;28;20200;-79
2023/04/15 09:53:18;;;;;;;2.60;2.40;;;;;;;9.87;100.00;98289.75;5070170;28;20192;-79
2023/04/15 09:55:50;;;;;;;2.40;2.20;;;;;;;9.68;100.00;98291.13;5070025;28;20204;-79
2023/04/15 09:58:19;;;;;;;2.80;2.40;;;;;;;9.84;100.00;98298.72;5067236;28;20200;-78
2023/04/15 10:00:49;;;;;;;3.60;2.20;;;;;;;9.78;100.00;98309.78;5072778;28;20200;-79
2023/04/15 10:03:21;;;;;;;3.07;2.40;;;;;;;9.56;100.00;98309.69;5071975;28;20220;-78
2023/04/15 10:05:53;;;;;;;3.13;2.57;;;;;;;9.48;100.00;98319.97;5069621;28;20300;-79
2023/04/15 10:08:23;;;;;;;3.43;2.50;;;;;;;9.35;100.00;98306.78;5070177;28;20209;-79
2023/04/15 10:10:52;;;;;;;3.20;2.43;;;;;;;9.52;100.00;98318.78;5068619;28;20196;-78
2023/04/15 10:13:22;;;;;;;3.40;2.60;;;;;;;9.18;100.00;98315.97;5064415;28;20224;-78
2023/04/15 10:15:53;;;;;;;4.47;2.80;;;;;;;9.12;100.00;98330.44;5068217;28;20197;-78
2023/04/15 10:18:25;;;;;;;3.93;3.20;;;;;;;9.13;100.00;98328.63;5072732;28;20204;-78
2023/04/15 10:20:55;;;;;;;4.10;2.77;;;;;;;9.06;100.00;98333.50;5018253;28;20200;-79
2023/04/15 10:23:24;;;;;;;4.87;3.10;;;;;;;9.11;100.00;98328.75;5069510;28;20222;-78
2023/04/15 10:25:54;;;;;;;3.30;2.90;;;;;;;9.06;100.00;98333.50;5072990;28;20199;-78
2023/04/15 10:28:22;;;;;;;5.67;3.33;;;;;;;9.13;100.00;98334.75;5073890;28;20200;-79
2023/04/15 10:30:52;;;;;;;3.60;3.10;;;;;;;9.12;100.00;98337.53;5074629;28;20230;-78
2023/04/15 10:33:23;;;;;;;3.97;2.87;;;;;;;9.34;100.00;98337.66;5068874;28;20204;-78
2023/04/15 10:35:53;;;;;;;5.53;3.33;;;;;;;9.21;100.00;98342.16;5067507;28;20204;-78
2023/04/15 10:38:37;;;;;;;3.97;3.00;;;;;;;9.24;100.00;98343.72;5072844;28;20658;-78
2023/04/15 10:41:17;;;;;;;5.03;3.23;;;;;;;9.42;100.00;98339.75;5069394;28;20567;-77
2023/04/15 10:43:50;;;;;;;3.53;2.97;;;;;;;9.30;100.00;98345.94;5068579;28;20216;-78
2023/04/15 10:46:35;;;;;;;4.23;3.23;;;;;;;9.43;100.00;98352.00;5072481;28;20200;-78
2023/04/15 10:49:09;;;;;;;4.87;3.47;;;;;;;9.37;100.00;98355.97;5072230;28;20674;-78
2023/04/15 10:51:40;;;;;;;4.93;3.70;;;;;;;9.44;100.00;98362.47;5072394;28;20196;-78
2023/04/15 10:54:14;;;;;;;3.73;3.20;;;;;;;9.45;100.00;98358.03;5072619;28;20697;-78
2023/04/15 10:56:43;;;;;;;6.00;3.47;;;;;;;9.23;100.00;98357.88;5067201;28;20207;-78
2023/04/15 10:59:12;;;;;;;4.83;3.90;;;;;;;9.41;100.00;98357.41;5071164;28;20201;-78
2023/04/15 11:01:55;;;;;;;5.13;3.93;;;;;;;9.45;100.00;98361.50;5072522;28;20197;-78
2023/04/15 11:04:52;;;;;;;5.43;3.90;;;;;;;9.60;100.00;98371.94;5068471;28;20230;-78
2023/04/15 11:07:34;;;;;;;7.60;4.63;;;;;;;9.25;100.00;98367.38;5072368;28;20203;-78
2023/04/15 11:10:25;;;;;;;4.63;3.80;;;;;;;9.12;100.00;98361.28;5072247;28;20245;-78
2023/04/15 11:12:56;;;;;;;5.43;3.70;;;;;;;9.25;100.00;98375.31;5071967;28;20193;-78
2023/04/15 11:15:30;;;;;;;4.23;3.83;;;;;;;9.29;100.00;98362.75;5070287;28;20192;-78
2023/04/15 11:17:59;;;;;;;5.20;3.73;;;;;;;9.32;100.00;98381.00;5072505;28;20200;-77
2023/04/15 11:20:28;;;;;;;4.80;3.30;;;;;;;9.23;100.00;98374.59;5076871;28;20220;-78
2023/04/15 11:22:56;;;;;;;4.53;3.70;;;;;;;9.33;100.00;98385.34;5071817;28;20713;-78
2023/04/15 11:25:44;;;;;;;4.90;3.70;;;;;;;9.52;100.00;98396.28;5076588;28;20285;-78
2023/04/15 11:28:13;;;;;;;4.83;3.90;;;;;;;9.37;100.00;98400.03;5072981;28;20195;-78
2023/04/15 11:30:43;;;;;;;5.50;3.60;;;;;;;9.40;100.00;98402.47;5069275;28;20327;-77
2023/04/15 11:33:12;;;;;;;4.40;3.40;;;;;;;9.44;100.00;98398.63;5072217;28;20256;-78
2023/04/15 11:35:41;;;;;;;4.63;3.90;;;;;;;9.40;100.00;98394.53;5072857;28;20193;-78
2023/04/15 11:38:14;;;;;;;4.50;3.63;;;;;;;9.33;100.00;98404.69;5071161;28;20201;-78
2023/04/15 11:40:44;;;;;;;4.50;3.50;;;;;;;9.33;100.00;98417.06;5075515;28;20686;-79
2023/04/15 11:43:17;;;;;;;4.67;3.80;;;;;;;9.38;100.00;98412.31;5072540;28;20256;-78